This is the latest recevied weather packets stored in our database for station/object IK1PCD-11. If no packets are shown the sender has not sent any weather packets the latest 10 day(s).
| Time | Temp. | Humidity | Pressure | Rain* | Wind** | Luminosity | Snow |
|---|---|---|---|---|---|---|---|
| 1777957989 | 6.67° C | 100% | 1011.2 hPa | - | - | - | - |
| 1777957089 | 6.67° C | 100% | 1011 hPa | - | - | - | - |
| 1777956189 | 6.67° C | 100% | 1011.4 hPa | - | - | - | - |
| 1777953488 | 7.22° C | 100% | 1011.3 hPa | - | - | - | - |
| 1777952588 | 7.22° C | 100% | 1011.2 hPa | - | - | - | - |
| 1777951688 | 7.22° C | 100% | 1011.5 hPa | - | - | - | - |
| 1777950788 | 6.67° C | 100% | 1011.8 hPa | - | - | - | - |
| 1777949888 | 6.67° C | 100% | 1012 hPa | - | - | - | - |
| 1777948988 | 6.67° C | 100% | 1012.3 hPa | - | - | - | - |
| 1777948088 | 6.67° C | 100% | 1012.5 hPa | - | - | - | - |
| 1777947188 | 7.22° C | 99% | 1012.6 hPa | - | - | - | - |
| 1777946288 | 7.22° C | 95% | 1012.7 hPa | - | - | - | - |
| 1777945387 | 7.22° C | 95% | 1012.9 hPa | - | - | - | - |
| 1777944487 | 7.22° C | 94% | 1013.2 hPa | - | - | - | - |
| 1777943587 | 7.78° C | 91% | 1013.3 hPa | - | - | - | - |
| 1777942687 | 8.33° C | 85% | 1013.6 hPa | - | - | - | - |
| 1777941786 | 9.44° C | 76% | 1013.9 hPa | - | - | - | - |
| 1777940885 | 8.89° C | 75% | 1014.1 hPa | - | - | - | - |
| 1777939101 | 8.89° C | 74% | 1014.5 hPa | - | - | - | - |
| 1777938201 | 8.89° C | 74% | 1014.7 hPa | - | - | - | - |
| 1777937301 | 8.89° C | 73% | 1015 hPa | - | - | - | - |
| 1777936401 | 9.44° C | 72% | 1015 hPa | - | - | - | - |
| 1777935501 | 9.44° C | 71% | 1015.3 hPa | - | - | - | - |
| 1777934601 | 9.44° C | 70% | 1015.5 hPa | - | - | - | - |
| 1777933700 | 9.44° C | 72% | 1015.6 hPa | - | - | - | - |
* Rain since midnight (hover to see other rain measurements)
** Current wind speed in m/s (hover to see current wind gust speed)